createdAt,value
2019-04-03T00:00:40.230Z,19.40
2019-04-03T00:03:13.053Z,19.30
2019-04-03T00:05:46.259Z,19.20
2019-04-03T00:08:19.093Z,19.10
2019-04-03T00:10:52.495Z,19.00
2019-04-03T00:13:25.392Z,18.90
2019-04-03T00:15:58.762Z,18.80
2019-04-03T00:18:31.559Z,18.80
2019-04-03T00:21:05.075Z,18.80
2019-04-03T00:23:37.976Z,18.80
2019-04-03T00:26:11.144Z,18.80
2019-04-03T00:28:43.949Z,18.80
2019-04-03T00:31:17.236Z,18.80
2019-04-03T00:33:50.103Z,18.80
2019-04-03T00:36:23.982Z,18.70
2019-04-03T00:38:58.087Z,18.60
2019-04-03T00:41:31.591Z,18.50
2019-04-03T00:44:04.523Z,18.60
2019-04-03T00:46:37.714Z,18.90
2019-04-03T00:49:10.699Z,19.10
2019-04-03T00:51:43.830Z,19.30
2019-04-03T00:54:16.925Z,19.30
2019-04-03T00:56:50.153Z,19.50
2019-04-03T00:59:23.098Z,19.90
2019-04-03T01:01:56.504Z,20.60
2019-04-03T01:04:29.864Z,20.80
2019-04-03T01:07:03.032Z,21.10
2019-04-03T01:09:36.028Z,21.80
2019-04-03T01:12:09.257Z,22.30
2019-04-03T01:14:42.202Z,22.10
2019-04-03T01:17:17.574Z,21.70
2019-04-03T01:19:50.432Z,21.40
2019-04-03T01:22:23.613Z,21.00
2019-04-03T01:24:56.405Z,20.70
2019-04-03T01:27:29.841Z,20.50
2019-04-03T01:30:02.865Z,20.30
2019-04-03T01:32:35.894Z,20.20
2019-04-03T01:35:09.751Z,20.00
2019-04-03T01:37:42.740Z,19.90
2019-04-03T01:40:19.998Z,19.80
2019-04-03T01:42:52.790Z,19.70
2019-04-03T01:45:26.291Z,19.80
2019-04-03T01:47:59.439Z,19.80
2019-04-03T01:50:32.420Z,19.80
2019-04-03T01:53:05.731Z,19.80
2019-04-03T01:55:38.591Z,19.70
2019-04-03T01:58:11.763Z,19.70
2019-04-03T02:00:44.548Z,19.60
2019-04-03T02:03:17.989Z,19.50
2019-04-03T02:05:50.954Z,19.50
2019-04-03T02:08:25.184Z,19.50
2019-04-03T02:10:58.025Z,19.50
2019-04-03T02:13:31.394Z,19.40
2019-04-03T02:16:04.319Z,19.40
2019-04-03T02:18:57.529Z,19.40
2019-04-03T02:22:22.395Z,19.40
2019-04-03T02:24:55.563Z,19.40
2019-04-03T02:27:29.505Z,19.40
2019-04-03T02:30:02.486Z,19.50
2019-04-03T02:32:35.360Z,19.50
2019-04-03T02:35:09.821Z,19.50
2019-04-03T02:37:43.098Z,19.50
2019-04-03T02:40:16.482Z,19.50
2019-04-03T02:42:50.137Z,19.50
2019-04-03T02:45:24.190Z,19.40
2019-04-03T02:47:57.092Z,19.40
2019-04-03T02:50:30.184Z,19.40
2019-04-03T02:53:04.921Z,19.50
2019-04-03T02:55:39.745Z,19.50
2019-04-03T02:58:12.376Z,19.50
2019-04-03T03:00:45.182Z,19.50
2019-04-03T03:03:18.576Z,19.50
2019-04-03T03:05:51.549Z,19.50
2019-04-03T03:08:24.806Z,19.50
2019-04-03T03:11:00.194Z,19.60
2019-04-03T03:13:35.218Z,19.60
2019-04-03T03:16:09.139Z,19.50
2019-04-03T03:18:42.699Z,19.50
2019-04-03T03:21:16.734Z,19.40
2019-04-03T03:23:50.789Z,19.40
2019-04-03T03:26:25.584Z,19.40
2019-04-03T03:29:14.261Z,19.40
2019-04-03T03:31:59.226Z,19.40
2019-04-03T03:34:09.028Z,19.50
2019-04-03T03:36:43.577Z,19.50
2019-04-03T03:39:16.893Z,19.50
2019-04-03T03:41:55.488Z,19.60
2019-04-03T03:44:27.129Z,19.60
2019-04-03T03:47:02.739Z,19.60
2019-04-03T03:49:35.649Z,19.50
2019-04-03T03:52:09.278Z,19.50
2019-04-03T03:54:42.844Z,19.50
2019-04-03T03:57:17.743Z,19.50
2019-04-03T03:59:53.631Z,19.50
2019-04-03T04:02:27.760Z,19.40
2019-04-03T04:05:01.651Z,19.40
2019-04-03T04:07:37.490Z,19.30
2019-04-03T04:10:09.682Z,19.30
2019-04-03T04:12:42.777Z,19.30
2019-04-03T04:15:15.918Z,19.30
2019-04-03T04:17:50.995Z,19.30
2019-04-03T04:20:23.569Z,19.20
2019-04-03T04:22:56.387Z,19.20
2019-04-03T04:25:30.552Z,19.20
2019-04-03T04:28:04.011Z,19.20
2019-04-03T04:30:42.036Z,19.20
2019-04-03T04:33:16.429Z,19.20
2019-04-03T04:35:49.726Z,19.20
2019-04-03T04:38:22.849Z,19.20
2019-04-03T04:40:55.569Z,19.20
2019-04-03T04:43:30.016Z,19.20
2019-04-03T04:46:04.129Z,19.20
2019-04-03T04:48:37.631Z,19.20
2019-04-03T04:51:10.679Z,19.10
2019-04-03T04:53:43.778Z,19.10
2019-04-03T04:56:16.698Z,19.10
2019-04-03T04:58:49.906Z,19.10
2019-04-03T05:01:23.187Z,19.10
2019-04-03T05:03:56.057Z,19.10
2019-04-03T05:06:29.883Z,19.10
2019-04-03T05:09:03.877Z,19.10
2019-04-03T05:11:39.108Z,19.00
2019-04-03T05:14:12.699Z,19.00
2019-04-03T05:16:45.951Z,19.00
2019-04-03T05:19:19.518Z,19.00
2019-04-03T05:21:53.539Z,19.00
2019-04-03T05:24:28.459Z,19.00
2019-04-03T05:27:02.552Z,19.00
2019-04-03T05:29:35.399Z,19.00
2019-04-03T05:32:10.687Z,18.90
2019-04-03T05:34:44.047Z,18.90
2019-04-03T05:37:19.708Z,18.90
2019-04-03T05:39:54.734Z,18.80
2019-04-03T05:42:26.991Z,18.80
2019-04-03T05:45:03.494Z,18.70
2019-04-03T05:47:35.186Z,18.70
2019-04-03T05:50:10.412Z,18.60
2019-04-03T05:52:44.055Z,18.60
2019-04-03T05:55:16.766Z,18.50
2019-04-03T05:57:49.916Z,18.50
2019-04-03T06:00:22.670Z,18.50
2019-04-03T06:02:57.190Z,18.40
2019-04-03T06:05:29.860Z,18.40
2019-04-03T06:08:03.004Z,18.40
2019-04-03T06:10:37.449Z,18.40
2019-04-03T06:13:11.654Z,18.30
2019-04-03T06:15:44.438Z,18.30
2019-04-03T06:18:18.151Z,18.30
2019-04-03T06:20:51.121Z,18.30
2019-04-03T06:23:24.710Z,18.30
2019-04-03T06:26:00.717Z,18.30
2019-04-03T06:28:31.969Z,18.20
2019-04-03T06:31:07.738Z,18.20
2019-04-03T06:33:39.573Z,18.30
2019-04-03T06:36:12.892Z,18.30
2019-04-03T06:38:47.081Z,18.30
2019-04-03T06:41:20.433Z,18.20
2019-04-03T06:43:54.505Z,18.20
2019-04-03T06:46:29.100Z,18.20
2019-04-03T06:49:03.501Z,18.20
2019-04-03T06:51:37.449Z,18.20
2019-04-03T06:54:10.416Z,18.20
2019-04-03T06:56:44.865Z,18.20
2019-04-03T06:59:17.714Z,18.20
2019-04-03T07:01:52.865Z,18.10
2019-04-03T07:04:24.913Z,18.10
2019-04-03T07:06:58.110Z,18.10
2019-04-03T07:09:35.558Z,18.10
2019-04-03T07:12:06.132Z,18.10
2019-04-03T07:14:39.119Z,18.10
2019-04-03T07:17:12.400Z,18.10
2019-04-03T07:19:45.424Z,18.10
2019-04-03T07:22:19.482Z,18.10
2019-04-03T07:24:52.577Z,18.00
2019-04-03T07:27:25.494Z,18.00
2019-04-03T07:29:58.552Z,18.00
2019-04-03T07:32:31.458Z,18.00
2019-04-03T07:35:08.999Z,18.00
2019-04-03T07:37:39.578Z,18.00
2019-04-03T07:40:16.619Z,18.00
2019-04-03T07:42:50.082Z,17.90
2019-04-03T07:45:22.989Z,17.90
2019-04-03T07:47:56.766Z,17.90
2019-04-03T07:50:30.737Z,18.00
2019-04-03T07:53:06.069Z,17.90
2019-04-03T07:55:46.674Z,17.90
2019-04-03T07:58:19.846Z,17.90
2019-04-03T08:00:53.936Z,17.90
2019-04-03T08:03:26.837Z,17.90
2019-04-03T08:06:01.089Z,17.90
2019-04-03T08:08:34.011Z,17.90
2019-04-03T08:11:07.521Z,17.80
2019-04-03T08:13:40.722Z,17.80
2019-04-03T08:16:15.838Z,17.80
2019-04-03T08:18:51.413Z,17.80
2019-04-03T08:21:24.297Z,17.80
2019-04-03T08:23:57.822Z,17.80
2019-04-03T08:26:31.446Z,17.80
2019-04-03T08:29:06.024Z,17.80
2019-04-03T08:31:42.760Z,17.80
2019-04-03T08:34:16.801Z,17.80
2019-04-03T08:36:47.692Z,17.80
2019-04-03T08:39:20.943Z,17.70
2019-04-03T08:41:56.038Z,17.70
2019-04-03T08:44:28.349Z,17.70
2019-04-03T08:47:02.085Z,17.70
2019-04-03T08:49:36.073Z,17.70
2019-04-03T08:52:10.413Z,17.70
2019-04-03T08:54:43.511Z,17.70
2019-04-03T08:57:19.939Z,17.70
2019-04-03T08:59:51.789Z,17.70
2019-04-03T09:02:25.242Z,17.70
2019-04-03T09:04:58.461Z,17.70
2019-04-03T09:07:31.499Z,17.70
2019-04-03T09:10:04.497Z,17.60
2019-04-03T09:12:38.124Z,17.70
2019-04-03T09:15:12.335Z,17.60
2019-04-03T09:17:45.807Z,17.60
2019-04-03T09:20:18.925Z,17.60
2019-04-03T09:22:53.632Z,17.50
2019-04-03T09:25:26.269Z,17.50
2019-04-03T09:27:59.703Z,17.50
2019-04-03T09:30:32.940Z,17.50
2019-04-03T09:33:07.131Z,17.50
2019-04-03T09:35:42.679Z,17.50
2019-04-03T09:38:14.490Z,17.50
2019-04-03T09:40:48.283Z,17.40
2019-04-03T09:43:23.184Z,17.40
2019-04-03T09:45:59.164Z,17.30
2019-04-03T09:48:31.049Z,17.30
2019-04-03T09:51:03.816Z,17.30
2019-04-03T09:53:37.082Z,17.30
2019-04-03T09:56:10.108Z,17.20
2019-04-03T09:58:43.255Z,17.20
2019-04-03T10:01:18.440Z,17.20
2019-04-03T10:03:53.425Z,17.20
2019-04-03T10:06:25.706Z,17.20
2019-04-03T10:08:58.741Z,17.10
2019-04-03T10:11:31.690Z,17.10
2019-04-03T10:14:04.503Z,17.00
2019-04-03T10:16:37.537Z,17.00
2019-04-03T10:19:12.415Z,17.00
2019-04-03T10:21:44.470Z,16.90
2019-04-03T10:24:17.533Z,16.90
2019-04-03T10:26:50.681Z,16.90
2019-04-03T10:29:23.628Z,16.90
2019-04-03T10:31:57.038Z,16.90
2019-04-03T10:34:30.338Z,16.80
2019-04-03T10:37:03.883Z,16.70
2019-04-03T10:39:39.586Z,16.70
2019-04-03T10:42:11.648Z,16.60
2019-04-03T10:44:44.331Z,16.60
2019-04-03T10:47:20.507Z,16.60
2019-04-03T10:49:52.020Z,16.50
2019-04-03T10:52:25.898Z,16.50
2019-04-03T10:54:58.943Z,16.40
2019-04-03T10:57:33.956Z,16.40
2019-04-03T11:00:06.960Z,16.40
2019-04-03T11:02:40.282Z,16.40
2019-04-03T11:05:13.964Z,16.40
2019-04-03T11:07:48.222Z,16.40
2019-04-03T11:10:23.366Z,16.40
2019-04-03T11:12:56.245Z,16.50
2019-04-03T11:15:29.222Z,16.50
2019-04-03T11:18:03.817Z,16.50
2019-04-03T11:20:37.143Z,16.50
2019-04-03T11:23:11.103Z,16.50
2019-04-03T11:25:45.914Z,16.50
2019-04-03T11:28:18.257Z,16.60
2019-04-03T11:30:52.889Z,16.60
2019-04-03T11:33:25.630Z,16.60
2019-04-03T11:35:59.449Z,16.60
2019-04-03T11:38:32.963Z,16.60
2019-04-03T11:41:13.112Z,16.60
2019-04-03T11:43:40.820Z,16.60
2019-04-03T11:46:15.255Z,16.60
2019-04-03T11:48:48.680Z,16.50
2019-04-03T11:51:23.307Z,16.50
2019-04-03T11:53:56.529Z,16.50
2019-04-03T11:56:29.506Z,16.50
2019-04-03T11:59:02.414Z,16.40
2019-04-03T12:01:36.469Z,16.40
2019-04-03T12:04:12.047Z,16.40
2019-04-03T12:06:43.586Z,16.30
2019-04-03T12:09:16.395Z,16.30
2019-04-03T12:11:49.562Z,16.30
2019-04-03T12:14:22.638Z,16.20
2019-04-03T12:16:57.950Z,16.20
2019-04-03T12:19:29.970Z,16.10
2019-04-03T12:22:03.214Z,16.10
2019-04-03T12:24:36.231Z,16.10
2019-04-03T12:27:09.649Z,16.10
2019-04-03T12:29:42.536Z,16.00
2019-04-03T12:32:15.605Z,16.00
2019-04-03T12:34:48.607Z,16.00
2019-04-03T12:37:24.524Z,15.90
2019-04-03T12:39:56.300Z,15.90
2019-04-03T12:42:29.919Z,15.90
2019-04-03T12:45:02.991Z,15.90
2019-04-03T12:47:36.230Z,15.90
2019-04-03T12:50:13.455Z,15.80
2019-04-03T12:52:47.028Z,15.80
2019-04-03T12:55:20.003Z,15.80
2019-04-03T12:57:53.154Z,15.80
2019-04-03T13:00:25.952Z,15.90
2019-04-03T13:02:58.924Z,15.90
2019-04-03T13:05:32.256Z,15.90
2019-04-03T13:08:05.479Z,15.90
2019-04-03T13:10:42.189Z,15.90
2019-04-03T13:13:12.506Z,15.90
2019-04-03T13:15:45.384Z,15.90
2019-04-03T13:18:18.276Z,15.90
2019-04-03T13:20:51.457Z,15.90
2019-04-03T13:23:24.444Z,15.90
2019-04-03T13:25:57.949Z,15.90
2019-04-03T13:28:30.835Z,15.90
2019-04-03T13:31:04.034Z,15.90
2019-04-03T13:33:38.719Z,15.90
2019-04-03T13:36:11.051Z,15.90
2019-04-03T13:38:43.852Z,15.80
2019-04-03T13:41:16.960Z,15.80
2019-04-03T13:43:52.482Z,15.70
2019-04-03T13:46:24.399Z,15.70
2019-04-03T13:48:57.401Z,15.70
2019-04-03T13:51:30.553Z,15.60
2019-04-03T13:54:06.979Z,15.60
2019-04-03T13:56:42.248Z,15.60
2019-04-03T13:59:12.979Z,15.60
2019-04-03T14:01:46.271Z,15.50
2019-04-03T14:04:22.051Z,15.50
2019-04-03T14:06:54.335Z,15.50
2019-04-03T14:09:27.279Z,15.50
2019-04-03T14:12:04.177Z,15.50
2019-04-03T14:14:36.445Z,15.40
2019-04-03T14:17:09.541Z,15.40
2019-04-03T14:19:45.925Z,15.40
2019-04-03T14:22:16.687Z,15.40
2019-04-03T14:24:52.554Z,15.30
2019-04-03T14:27:29.147Z,15.30
2019-04-03T14:29:59.362Z,15.40
2019-04-03T14:32:32.991Z,15.30
2019-04-03T14:35:29.952Z,15.40
2019-04-03T14:37:40.861Z,15.40
2019-04-03T14:40:14.507Z,15.40
2019-04-03T14:42:47.664Z,15.40
2019-04-03T14:45:22.090Z,15.40
2019-04-03T14:47:55.806Z,15.40
2019-04-03T14:50:29.251Z,15.40
2019-04-03T14:53:03.702Z,15.50
2019-04-03T14:55:47.492Z,15.50
2019-04-03T14:58:12.206Z,15.50
2019-04-03T15:00:47.456Z,15.50
2019-04-03T15:03:19.606Z,15.50
2019-04-03T15:05:52.597Z,15.50
2019-04-03T15:08:25.999Z,15.60
2019-04-03T15:10:58.766Z,15.60
2019-04-03T15:13:32.292Z,15.60
2019-04-03T15:16:05.601Z,15.60
2019-04-03T15:18:41.323Z,15.60
2019-04-03T15:21:13.256Z,15.60
2019-04-03T15:23:46.373Z,15.60
2019-04-03T15:26:21.755Z,15.50
2019-04-03T15:28:53.525Z,15.50
2019-04-03T15:31:26.566Z,15.50
2019-04-03T15:33:59.630Z,15.50
2019-04-03T15:36:34.924Z,15.50
2019-04-03T15:39:09.230Z,15.40
2019-04-03T15:41:42.467Z,15.40
2019-04-03T15:44:15.570Z,15.40
2019-04-03T15:46:49.620Z,15.40
2019-04-03T15:49:25.586Z,15.30
2019-04-03T15:51:56.952Z,15.30
2019-04-03T15:54:32.907Z,15.30
2019-04-03T15:57:05.759Z,15.20
2019-04-03T15:59:40.311Z,15.20
2019-04-03T16:02:13.376Z,15.20
2019-04-03T16:04:46.415Z,15.20
2019-04-03T16:07:19.423Z,15.20
2019-04-03T16:09:52.699Z,15.10
2019-04-03T16:12:25.837Z,15.10
2019-04-03T16:14:59.513Z,15.10
2019-04-03T16:17:33.552Z,15.10
2019-04-03T16:20:06.615Z,15.00
2019-04-03T16:22:39.608Z,15.00
2019-04-03T16:25:16.135Z,15.00
2019-04-03T16:27:48.922Z,14.90
2019-04-03T16:30:22.001Z,15.00
2019-04-03T16:32:57.549Z,15.00
2019-04-03T16:35:30.044Z,15.00
2019-04-03T16:38:04.539Z,15.00
2019-04-03T16:40:38.799Z,15.00
2019-04-03T16:43:11.832Z,15.10
2019-04-03T16:45:46.292Z,15.10
2019-04-03T16:48:19.081Z,15.10
2019-04-03T16:50:52.483Z,15.20
2019-04-03T16:53:25.253Z,15.20
2019-04-03T16:55:58.435Z,15.30
2019-04-03T16:58:32.473Z,15.30
2019-04-03T17:01:05.651Z,15.30
2019-04-03T17:03:38.680Z,15.30
2019-04-03T17:06:13.204Z,15.30
2019-04-03T17:08:45.652Z,15.30
2019-04-03T17:11:19.133Z,15.30
2019-04-03T17:13:52.836Z,15.30
2019-04-03T17:16:26.228Z,15.30
2019-04-03T17:18:59.240Z,15.30
2019-04-03T17:21:36.939Z,15.30
2019-04-03T17:24:07.224Z,15.20
2019-04-03T17:26:49.853Z,15.30
2019-04-03T17:29:14.864Z,15.30
2019-04-03T17:31:48.474Z,15.30
2019-04-03T17:34:21.444Z,15.20
2019-04-03T17:36:55.617Z,15.20
2019-04-03T17:39:28.335Z,15.20
2019-04-03T17:42:02.362Z,15.20
2019-04-03T17:44:38.029Z,15.20
2019-04-03T17:47:09.460Z,15.20
2019-04-03T17:49:42.448Z,15.20
2019-04-03T17:52:15.610Z,15.20
2019-04-03T17:54:48.278Z,15.20
2019-04-03T17:57:24.237Z,15.20
2019-04-03T17:59:57.345Z,15.20
2019-04-03T18:02:32.482Z,15.30
2019-04-03T18:05:06.410Z,15.30
2019-04-03T18:07:39.498Z,15.30
2019-04-03T18:10:13.001Z,15.30
2019-04-03T18:12:46.198Z,15.20
2019-04-03T18:15:20.242Z,15.20
2019-04-03T18:17:53.470Z,15.20
2019-04-03T18:20:26.739Z,15.20
2019-04-03T18:23:00.358Z,15.20
2019-04-03T18:25:33.234Z,15.20
2019-04-03T18:28:07.210Z,15.20
2019-04-03T18:30:42.130Z,15.20
2019-04-03T18:33:16.695Z,15.20
2019-04-03T18:35:48.692Z,15.10
2019-04-03T18:38:21.792Z,15.10
2019-04-03T18:40:54.924Z,15.10
2019-04-03T18:43:27.873Z,15.10
2019-04-03T18:46:01.222Z,15.00
2019-04-03T18:48:34.040Z,15.00
2019-04-03T18:51:07.014Z,15.00
2019-04-03T18:53:41.159Z,15.00
2019-04-03T18:56:15.497Z,15.10
2019-04-03T18:58:48.361Z,15.10
2019-04-03T19:01:21.470Z,15.10
2019-04-03T19:03:55.954Z,15.20
2019-04-03T19:06:29.664Z,15.20
2019-04-03T19:09:09.693Z,15.30
2019-04-03T19:11:36.870Z,15.30
2019-04-03T19:14:10.183Z,15.40
2019-04-03T19:16:45.194Z,15.40
2019-04-03T19:19:17.230Z,15.50
2019-04-03T19:21:50.038Z,15.60
2019-04-03T19:24:24.741Z,15.80
2019-04-03T19:26:58.049Z,15.90
2019-04-03T19:29:31.463Z,16.10
2019-04-03T19:32:04.464Z,16.30
2019-04-03T19:34:37.633Z,16.70
2019-04-03T19:37:10.424Z,17.00
2019-04-03T19:39:43.587Z,17.40
2019-04-03T19:42:16.368Z,17.70
2019-04-03T19:44:50.236Z,18.00
2019-04-03T19:47:24.668Z,18.30
2019-04-03T19:49:59.896Z,18.70
2019-04-03T19:52:31.601Z,19.00
2019-04-03T19:55:04.768Z,19.20
2019-04-03T19:57:37.953Z,19.50
2019-04-03T20:00:11.896Z,19.80
2019-04-03T20:02:45.174Z,20.00
2019-04-03T20:05:18.961Z,20.30
2019-04-03T20:07:53.147Z,20.40
2019-04-03T20:10:25.853Z,20.60
2019-04-03T20:12:59.110Z,20.70
2019-04-03T20:15:31.962Z,21.00
2019-04-03T20:18:05.159Z,21.30
2019-04-03T20:20:38.565Z,21.60
2019-04-03T20:23:12.733Z,21.90
2019-04-03T20:25:46.011Z,22.20
2019-04-03T20:28:23.383Z,22.40
2019-04-03T20:30:55.213Z,22.70
2019-04-03T20:33:28.683Z,23.00
2019-04-03T20:36:01.608Z,23.20
2019-04-03T20:38:34.779Z,23.40
2019-04-03T20:41:07.753Z,23.50
2019-04-03T20:43:43.305Z,23.70
2019-04-03T20:46:15.794Z,23.90
2019-04-03T20:48:49.046Z,24.20
2019-04-03T20:51:21.829Z,24.50
2019-04-03T20:53:54.854Z,24.80
2019-04-03T20:56:29.038Z,25.10
2019-04-03T20:59:02.516Z,25.50
2019-04-03T21:01:36.843Z,25.70
2019-04-03T21:04:09.980Z,25.70
2019-04-03T21:06:43.167Z,25.70
2019-04-03T21:09:16.179Z,25.80
2019-04-03T21:11:50.504Z,26.30
2019-04-03T21:14:23.356Z,26.40
2019-04-03T21:16:56.840Z,26.60
2019-04-03T21:19:29.612Z,26.80
2019-04-03T21:22:04.859Z,27.00
2019-04-03T21:24:37.753Z,27.10
2019-04-03T21:27:11.518Z,27.30
2019-04-03T21:29:44.714Z,27.50
2019-04-03T21:32:17.762Z,27.80
2019-04-03T21:34:50.706Z,28.00
2019-04-03T21:37:24.040Z,28.20
2019-04-03T21:39:56.915Z,28.40
2019-04-03T21:42:30.078Z,28.50
2019-04-03T21:45:05.130Z,28.60
2019-04-03T21:47:38.308Z,28.80
2019-04-03T21:50:12.746Z,28.90
2019-04-03T21:52:46.600Z,28.90
2019-04-03T21:55:19.577Z,28.90
2019-04-03T21:57:52.595Z,29.00
2019-04-03T22:00:29.225Z,29.20
2019-04-03T22:03:02.168Z,29.40
2019-04-03T22:05:35.142Z,29.50
2019-04-03T22:08:08.670Z,29.50
2019-04-03T22:10:41.557Z,29.60
2019-04-03T22:13:14.725Z,29.70
2019-04-03T22:15:47.562Z,29.80
2019-04-03T22:18:23.495Z,30.10
2019-04-03T22:20:54.735Z,30.40
2019-04-03T22:23:27.830Z,30.60
2019-04-03T22:26:01.623Z,30.70
2019-04-03T22:28:34.717Z,30.70
2019-04-03T22:31:07.999Z,30.80
2019-04-03T22:33:40.928Z,31.00
2019-04-03T22:36:13.876Z,31.20
2019-04-03T22:38:48.045Z,31.30
2019-04-03T22:41:20.886Z,31.40
2019-04-03T22:43:54.039Z,31.50
2019-04-03T22:46:28.080Z,31.60
2019-04-03T22:49:02.036Z,31.50
2019-04-03T22:51:35.859Z,31.60
2019-04-03T22:54:10.847Z,31.70
2019-04-03T22:56:43.722Z,31.70
2019-04-03T22:59:17.274Z,31.80
2019-04-03T23:01:50.217Z,31.90
2019-04-03T23:04:24.273Z,32.00
2019-04-03T23:06:57.076Z,32.00
2019-04-03T23:09:30.073Z,32.00
2019-04-03T23:12:03.619Z,31.90
2019-04-03T23:14:38.460Z,32.00
2019-04-03T23:17:13.712Z,32.00
2019-04-03T23:19:46.211Z,32.00
2019-04-03T23:22:19.078Z,31.90
2019-04-03T23:24:51.871Z,32.00
2019-04-03T23:27:25.067Z,32.10
2019-04-03T23:29:58.038Z,32.10
2019-04-03T23:32:31.155Z,32.10
2019-04-03T23:35:04.029Z,32.00
2019-04-03T23:37:37.392Z,32.00
2019-04-03T23:40:10.429Z,31.90
2019-04-03T23:42:43.638Z,31.80
2019-04-03T23:45:16.592Z,31.90
2019-04-03T23:47:49.901Z,31.90
2019-04-03T23:50:22.640Z,31.80
2019-04-03T23:52:55.870Z,31.70
2019-04-03T23:55:28.749Z,31.70
2019-04-03T23:58:02.943Z,31.50
